sensor_id;sensor_type;location;lat;lon;timestamp;pressure;altitude;pressure_sealevel;temperature;humidity
83631;BME280;73593;52.134;5.426;2023-12-29T00:00:28;100716.69;;;9.34;81.55
83631;BME280;73593;52.134;5.426;2023-12-29T00:02:57;100707.81;;;9.35;81.31
83631;BME280;73593;52.134;5.426;2023-12-29T00:05:24;100712.34;;;9.33;81.47
83631;BME280;73593;52.134;5.426;2023-12-29T00:07:51;100708.78;;;9.34;81.36
83631;BME280;73593;52.134;5.426;2023-12-29T00:10:18;100712.84;;;9.38;81.13
83631;BME280;73593;52.134;5.426;2023-12-29T00:12:47;100697.47;;;9.43;81.02
83631;BME280;73593;52.134;5.426;2023-12-29T00:15:19;100703.94;;;9.39;81.49
83631;BME280;73593;52.134;5.426;2023-12-29T00:17:46;100706.22;;;9.32;81.94
83631;BME280;73593;52.134;5.426;2023-12-29T00:20:14;100693.75;;;9.23;83.13
83631;BME280;73593;52.134;5.426;2023-12-29T00:23:01;100720.00;;;9.13;83.90
83631;BME280;73593;52.134;5.426;2023-12-29T00:25:28;100712.31;;;8.99;84.79
83631;BME280;73593;52.134;5.426;2023-12-29T00:27:54;100700.03;;;8.87;85.82
83631;BME280;73593;52.134;5.426;2023-12-29T00:30:21;100701.47;;;8.80;86.65
83631;BME280;73593;52.134;5.426;2023-12-29T00:32:47;100701.69;;;8.77;86.60
83631;BME280;73593;52.134;5.426;2023-12-29T00:35:16;100681.78;;;8.73;86.84
83631;BME280;73593;52.134;5.426;2023-12-29T00:37:45;100695.81;;;8.73;87.09
83631;BME280;73593;52.134;5.426;2023-12-29T00:40:12;100696.31;;;8.78;86.61
83631;BME280;73593;52.134;5.426;2023-12-29T00:42:39;100673.25;;;8.80;86.56
83631;BME280;73593;52.134;5.426;2023-12-29T00:45:06;100673.97;;;8.82;86.48
83631;BME280;73593;52.134;5.426;2023-12-29T00:47:33;100672.81;;;8.86;86.10
83631;BME280;73593;52.134;5.426;2023-12-29T00:50:03;100680.59;;;8.88;85.97
83631;BME280;73593;52.134;5.426;2023-12-29T00:52:30;100660.69;;;8.95;85.56
83631;BME280;73593;52.134;5.426;2023-12-29T00:54:56;100663.22;;;8.97;85.17
83631;BME280;73593;52.134;5.426;2023-12-29T00:57:26;100658.31;;;9.03;84.38
83631;BME280;73593;52.134;5.426;2023-12-29T00:59:55;100678.97;;;9.09;84.29
83631;BME280;73593;52.134;5.426;2023-12-29T01:02:21;100664.53;;;9.13;83.83
83631;BME280;73593;52.134;5.426;2023-12-29T01:04:48;100672.47;;;9.13;83.74
83631;BME280;73593;52.134;5.426;2023-12-29T01:07:17;100666.72;;;9.20;83.33
83631;BME280;73593;52.134;5.426;2023-12-29T01:09:46;100669.97;;;9.23;82.70
83631;BME280;73593;52.134;5.426;2023-12-29T01:12:15;100668.88;;;9.26;82.81
83631;BME280;73593;52.134;5.426;2023-12-29T01:14:41;100671.16;;;9.30;82.48
83631;BME280;73593;52.134;5.426;2023-12-29T01:17:13;100642.72;;;9.34;82.26
83631;BME280;73593;52.134;5.426;2023-12-29T01:19:42;100680.16;;;9.39;81.92
83631;BME280;73593;52.134;5.426;2023-12-29T01:22:09;100689.91;;;9.38;81.89
83631;BME280;73593;52.134;5.426;2023-12-29T01:24:35;100660.25;;;9.35;82.14
83631;BME280;73593;52.134;5.426;2023-12-29T01:27:11;100650.75;;;9.32;82.22
83631;BME280;73593;52.134;5.426;2023-12-29T01:29:38;100656.78;;;9.34;82.17
83631;BME280;73593;52.134;5.426;2023-12-29T01:32:06;100676.09;;;9.35;82.18
83631;BME280;73593;52.134;5.426;2023-12-29T01:34:36;100666.38;;;9.35;81.72
83631;BME280;73593;52.134;5.426;2023-12-29T01:37:04;100664.69;;;9.34;81.93
83631;BME280;73593;52.134;5.426;2023-12-29T01:39:34;100649.06;;;9.31;81.93
83631;BME280;73593;52.134;5.426;2023-12-29T01:42:01;100640.31;;;9.31;81.96
83631;BME280;73593;52.134;5.426;2023-12-29T01:44:31;100644.63;;;9.32;82.02
83631;BME280;73593;52.134;5.426;2023-12-29T01:47:01;100647.25;;;9.32;82.09
83631;BME280;73593;52.134;5.426;2023-12-29T01:49:29;100657.84;;;9.32;81.87
83631;BME280;73593;52.134;5.426;2023-12-29T01:51:57;100662.16;;;9.33;81.66
83631;BME280;73593;52.134;5.426;2023-12-29T01:54:29;100659.50;;;9.33;81.63
83631;BME280;73593;52.134;5.426;2023-12-29T01:56:59;100673.81;;;9.30;81.82
83631;BME280;73593;52.134;5.426;2023-12-29T01:59:27;100654.34;;;9.31;81.67
83631;BME280;73593;52.134;5.426;2023-12-29T02:01:54;100661.56;;;9.29;81.75
83631;BME280;73593;52.134;5.426;2023-12-29T02:04:25;100661.56;;;9.29;82.01
83631;BME280;73593;52.134;5.426;2023-12-29T02:06:54;100658.09;;;9.29;82.04
83631;BME280;73593;52.134;5.426;2023-12-29T02:09:22;100661.56;;;9.29;82.08
83631;BME280;73593;52.134;5.426;2023-12-29T02:11:51;100662.63;;;9.27;82.06
83631;BME280;73593;52.134;5.426;2023-12-29T02:14:19;100679.34;;;9.27;81.94
83631;BME280;73593;52.134;5.426;2023-12-29T02:17:14;100676.56;;;9.29;82.11
83631;BME280;73593;52.134;5.426;2023-12-29T02:19:43;100687.28;;;9.27;82.28
83631;BME280;73593;52.134;5.426;2023-12-29T02:22:12;100664.44;;;9.26;82.29
83631;BME280;73593;52.134;5.426;2023-12-29T02:24:45;100665.28;;;9.27;82.24
83631;BME280;73593;52.134;5.426;2023-12-29T02:27:22;100681.25;;;9.25;82.28
83631;BME280;73593;52.134;5.426;2023-12-29T02:32:53;100690.00;;;9.26;82.62
83631;BME280;73593;52.134;5.426;2023-12-29T02:35:34;100670.81;;;9.24;82.81
83631;BME280;73593;52.134;5.426;2023-12-29T02:38:02;100662.88;;;9.24;82.85
83631;BME280;73593;52.134;5.426;2023-12-29T02:40:29;100664.81;;;9.22;82.80
83631;BME280;73593;52.134;5.426;2023-12-29T02:42:59;100666.84;;;9.18;82.80
83631;BME280;73593;52.134;5.426;2023-12-29T02:45:28;100664.44;;;9.15;83.01
83631;BME280;73593;52.134;5.426;2023-12-29T02:47:55;100672.59;;;9.12;83.36
83631;BME280;73593;52.134;5.426;2023-12-29T02:50:25;100677.03;;;9.11;83.41
83631;BME280;73593;52.134;5.426;2023-12-29T02:52:54;100671.88;;;9.10;83.79
83631;BME280;73593;52.134;5.426;2023-12-29T02:55:24;100674.03;;;9.05;84.17
83631;BME280;73593;52.134;5.426;2023-12-29T02:57:50;100669.94;;;9.01;84.49
83631;BME280;73593;52.134;5.426;2023-12-29T03:00:22;100672.22;;;8.94;85.29
83631;BME280;73593;52.134;5.426;2023-12-29T03:02:48;100666.44;;;8.89;85.64
83631;BME280;73593;52.134;5.426;2023-12-29T03:05:15;100675.31;;;8.88;85.82
83631;BME280;73593;52.134;5.426;2023-12-29T03:07:44;100670.03;;;8.88;86.09
83631;BME280;73593;52.134;5.426;2023-12-29T03:10:13;100672.19;;;8.83;86.21
83631;BME280;73593;52.134;5.426;2023-12-29T03:12:40;100661.16;;;8.78;86.60
83631;BME280;73593;52.134;5.426;2023-12-29T03:15:07;100673.09;;;8.71;86.74
83631;BME280;73593;52.134;5.426;2023-12-29T03:17:36;100670.72;;;8.68;86.98
83631;BME280;73593;52.134;5.426;2023-12-29T03:20:05;100679.59;;;8.67;87.00
83631;BME280;73593;52.134;5.426;2023-12-29T03:22:35;100685.94;;;8.64;87.02
83631;BME280;73593;52.134;5.426;2023-12-29T03:25:01;100685.09;;;8.64;87.23
83631;BME280;73593;52.134;5.426;2023-12-29T03:27:28;100680.78;;;8.63;86.86
83631;BME280;73593;52.134;5.426;2023-12-29T03:29:57;100676.34;;;8.63;86.53
83631;BME280;73593;52.134;5.426;2023-12-29T03:32:31;100680.16;;;8.59;86.50
83631;BME280;73593;52.134;5.426;2023-12-29T03:35:00;100688.81;;;8.61;86.16
83631;BME280;73593;52.134;5.426;2023-12-29T03:37:27;100667.91;;;8.58;86.08
83631;BME280;73593;52.134;5.426;2023-12-29T03:39:54;100677.88;;;8.54;86.22
83631;BME280;73593;52.134;5.426;2023-12-29T03:42:21;100673.56;;;8.53;85.90
83631;BME280;73593;52.134;5.426;2023-12-29T03:44:47;100673.56;;;8.53;85.83
83631;BME280;73593;52.134;5.426;2023-12-29T03:47:14;100685.28;;;8.49;85.84
83631;BME280;73593;52.134;5.426;2023-12-29T03:49:40;100676.41;;;8.50;85.92
83631;BME280;73593;52.134;5.426;2023-12-29T03:52:08;100671.84;;;8.52;85.71
83631;BME280;73593;52.134;5.426;2023-12-29T03:54:39;100663.22;;;8.50;85.71
83631;BME280;73593;52.134;5.426;2023-12-29T03:57:11;100651.72;;;8.51;85.84
83631;BME280;73593;52.134;5.426;2023-12-29T03:59:40;100661.53;;;8.49;86.15
83631;BME280;73593;52.134;5.426;2023-12-29T04:02:08;100652.44;;;8.53;85.79
83631;BME280;73593;52.134;5.426;2023-12-29T04:04:37;100646.81;;;8.58;86.11
83631;BME280;73593;52.134;5.426;2023-12-29T04:07:07;100655.34;;;8.61;86.20
83631;BME280;73593;52.134;5.426;2023-12-29T04:09:36;100663.13;;;8.63;86.60
83631;BME280;73593;52.134;5.426;2023-12-29T04:12:03;100649.34;;;8.59;86.53
83631;BME280;73593;52.134;5.426;2023-12-29T04:14:29;100638.19;;;8.56;86.76
83631;BME280;73593;52.134;5.426;2023-12-29T04:16:56;100642.50;;;8.57;86.92
83631;BME280;73593;52.134;5.426;2023-12-29T04:19:22;100641.78;;;8.55;87.22
83631;BME280;73593;52.134;5.426;2023-12-29T04:21:49;100643.56;;;8.54;87.17
83631;BME280;73593;52.134;5.426;2023-12-29T04:24:16;100641.78;;;8.55;87.33
83631;BME280;73593;52.134;5.426;2023-12-29T04:26:42;100644.28;;;8.56;86.97
83631;BME280;73593;52.134;5.426;2023-12-29T04:29:09;100639.00;;;8.56;86.94
83631;BME280;73593;52.134;5.426;2023-12-29T04:31:35;100638.88;;;8.58;87.13
83631;BME280;73593;52.134;5.426;2023-12-29T04:34:04;100641.19;;;8.63;86.73
83631;BME280;73593;52.134;5.426;2023-12-29T04:36:31;100624.53;;;8.62;86.88
83631;BME280;73593;52.134;5.426;2023-12-29T04:39:00;100640.22;;;8.64;86.66
83631;BME280;73593;52.134;5.426;2023-12-29T04:41:27;100648.03;;;8.65;86.33
83631;BME280;73593;52.134;5.426;2023-12-29T04:43:54;100648.63;;;8.69;86.05
83631;BME280;73593;52.134;5.426;2023-12-29T04:46:22;100647.69;;;8.70;86.12
83631;BME280;73593;52.134;5.426;2023-12-29T04:48:49;100655.59;;;8.70;86.01
83631;BME280;73593;52.134;5.426;2023-12-29T04:51:16;100643.97;;;8.72;85.63
83631;BME280;73593;52.134;5.426;2023-12-29T04:53:45;100642.28;;;8.71;85.60
83631;BME280;73593;52.134;5.426;2023-12-29T04:56:12;100644.06;;;8.71;85.53
83631;BME280;73593;52.134;5.426;2023-12-29T04:58:41;100644.06;;;8.71;85.43
83631;BME280;73593;52.134;5.426;2023-12-29T05:01:10;100628.25;;;8.71;85.23
83631;BME280;73593;52.134;5.426;2023-12-29T05:03:41;100637.50;;;8.76;84.89
83631;BME280;73593;52.134;5.426;2023-12-29T05:06:08;100633.53;;;8.82;84.70
83631;BME280;73593;52.134;5.426;2023-12-29T05:08:35;100635.34;;;8.81;84.40
83631;BME280;73593;52.134;5.426;2023-12-29T05:11:02;100637.16;;;8.81;84.50
83631;BME280;73593;52.134;5.426;2023-12-29T05:13:29;100624.78;;;8.81;84.21
83631;BME280;73593;52.134;5.426;2023-12-29T05:15:58;100620.59;;;8.79;84.43
83631;BME280;73593;52.134;5.426;2023-12-29T05:18:25;100626.72;;;8.79;84.21
83631;BME280;73593;52.134;5.426;2023-12-29T05:20:53;100625.03;;;8.78;84.37
83631;BME280;73593;52.134;5.426;2023-12-29T05:23:22;100629.56;;;8.76;84.53
83631;BME280;73593;52.134;5.426;2023-12-29T05:25:49;100640.97;;;8.77;84.70
83631;BME280;73593;52.134;5.426;2023-12-29T05:28:15;100625.75;;;8.80;84.26
83631;BME280;73593;52.134;5.426;2023-12-29T05:30:42;100638.81;;;8.82;84.52
83631;BME280;73593;52.134;5.426;2023-12-29T05:33:11;100641.47;;;8.82;84.30
83631;BME280;73593;52.134;5.426;2023-12-29T05:35:38;100641.34;;;8.83;84.48
83631;BME280;73593;52.134;5.426;2023-12-29T05:38:04;100632.38;;;8.86;84.43
83631;BME280;73593;52.134;5.426;2023-12-29T05:40:31;100642.94;;;8.86;84.38
83631;BME280;73593;52.134;5.426;2023-12-29T05:42:58;100635.22;;;8.83;84.35
83631;BME280;73593;52.134;5.426;2023-12-29T05:45:25;100627.31;;;8.83;84.36
83631;BME280;73593;52.134;5.426;2023-12-29T05:47:54;100625.50;;;8.83;84.49
83631;BME280;73593;52.134;5.426;2023-12-29T05:50:21;100619.50;;;8.81;84.41
83631;BME280;73593;52.134;5.426;2023-12-29T05:52:48;100638.00;;;8.81;84.56
83631;BME280;73593;52.134;5.426;2023-12-29T05:55:18;100633.66;;;8.80;84.58
83631;BME280;73593;52.134;5.426;2023-12-29T05:57:45;100629.09;;;8.82;84.36
83631;BME280;73593;52.134;5.426;2023-12-29T06:00:15;100619.63;;;8.80;84.56
83631;BME280;73593;52.134;5.426;2023-12-29T06:02:46;100634.63;;;8.79;84.67
83631;BME280;73593;52.134;5.426;2023-12-29T06:05:15;100632.97;;;8.78;84.51
83631;BME280;73593;52.134;5.426;2023-12-29T06:07:42;100624.06;;;8.79;84.48
83631;BME280;73593;52.134;5.426;2023-12-29T06:10:11;100642.44;;;8.81;84.45
83631;BME280;73593;52.134;5.426;2023-12-29T06:12:38;100638.59;;;8.85;84.06
83631;BME280;73593;52.134;5.426;2023-12-29T06:15:05;100634.16;;;8.85;84.32
83631;BME280;73593;52.134;5.426;2023-12-29T06:17:40;100639.44;;;8.85;84.07
83631;BME280;73593;52.134;5.426;2023-12-29T06:20:09;100646.41;;;8.86;83.91
83631;BME280;73593;52.134;5.426;2023-12-29T06:22:40;100646.28;;;8.88;84.20
83631;BME280;73593;52.134;5.426;2023-12-29T06:25:11;100637.41;;;8.89;84.04
83631;BME280;73593;52.134;5.426;2023-12-29T06:27:39;100648.56;;;8.93;83.78
83631;BME280;73593;52.134;5.426;2023-12-29T06:30:07;100647.59;;;8.94;83.74
83631;BME280;73593;52.134;5.426;2023-12-29T06:32:34;100651.84;;;8.96;83.78
83631;BME280;73593;52.134;5.426;2023-12-29T06:35:02;100653.59;;;8.96;83.56
83631;BME280;73593;52.134;5.426;2023-12-29T06:37:32;100644.84;;;8.95;83.51
83631;BME280;73593;52.134;5.426;2023-12-29T06:40:01;100638.84;;;8.93;83.46
83631;BME280;73593;52.134;5.426;2023-12-29T06:42:28;100642.31;;;8.94;83.30
83631;BME280;73593;52.134;5.426;2023-12-29T06:44:57;100647.59;;;8.94;83.33
83631;BME280;73593;52.134;5.426;2023-12-29T06:47:26;100644.75;;;8.97;83.05
83631;BME280;73593;52.134;5.426;2023-12-29T06:49:53;100643.03;;;8.96;83.40
83631;BME280;73593;52.134;5.426;2023-12-29T06:52:19;100629.75;;;8.97;83.37
83631;BME280;73593;52.134;5.426;2023-12-29T06:54:46;100634.19;;;8.97;83.53
83631;BME280;73593;52.134;5.426;2023-12-29T06:57:13;100633.34;;;8.96;83.46
83631;BME280;73593;52.134;5.426;2023-12-29T06:59:41;100632.59;;;8.94;83.19
83631;BME280;73593;52.134;5.426;2023-12-29T07:02:08;100638.13;;;8.91;83.18
83631;BME280;73593;52.134;5.426;2023-12-29T07:04:35;100634.53;;;8.92;83.34
83631;BME280;73593;52.134;5.426;2023-12-29T07:07:01;100624.19;;;8.89;83.30
83631;BME280;73593;52.134;5.426;2023-12-29T07:09:33;100626.97;;;8.87;83.58
83631;BME280;73593;52.134;5.426;2023-12-29T07:12:02;100627.94;;;8.86;83.45
83631;BME280;73593;52.134;5.426;2023-12-29T07:14:29;100641.84;;;8.88;83.52
83631;BME280;73593;52.134;5.426;2023-12-29T07:16:56;100636.47;;;8.90;83.66
83631;BME280;73593;52.134;5.426;2023-12-29T07:19:24;100640.03;;;8.89;83.68
83631;BME280;73593;52.134;5.426;2023-12-29T07:21:51;100639.09;;;8.90;83.78
83631;BME280;73593;52.134;5.426;2023-12-29T07:24:17;100640.03;;;8.89;83.96
83631;BME280;73593;52.134;5.426;2023-12-29T07:26:44;100636.69;;;8.87;83.81
83631;BME280;73593;52.134;5.426;2023-12-29T07:29:11;100634.03;;;8.87;83.99
83631;BME280;73593;52.134;5.426;2023-12-29T07:31:42;100650.00;;;8.85;84.07
83631;BME280;73593;52.134;5.426;2023-12-29T07:34:13;100634.88;;;8.87;84.17
83631;BME280;73593;52.134;5.426;2023-12-29T07:36:40;100650.00;;;8.85;84.06
83631;BME280;73593;52.134;5.426;2023-12-29T07:39:07;100640.28;;;8.86;84.21
83631;BME280;73593;52.134;5.426;2023-12-29T07:41:36;100648.31;;;8.84;84.46
83631;BME280;73593;52.134;5.426;2023-12-29T07:44:05;100655.41;;;8.84;84.49
83631;BME280;73593;52.134;5.426;2023-12-29T07:46:32;100644.09;;;8.82;84.87
83631;BME280;73593;52.134;5.426;2023-12-29T07:49:00;100651.31;;;8.80;84.99
83631;BME280;73593;52.134;5.426;2023-12-29T07:51:27;100647.00;;;8.79;85.16
83631;BME280;73593;52.134;5.426;2023-12-29T07:53:54;100637.28;;;8.79;85.42
83631;BME280;73593;52.134;5.426;2023-12-29T07:56:21;100646.03;;;8.80;85.69
83631;BME280;73593;52.134;5.426;2023-12-29T07:58:47;100649.50;;;8.80;85.74
83631;BME280;73593;52.134;5.426;2023-12-29T08:01:15;100662.84;;;8.79;85.85
83631;BME280;73593;52.134;5.426;2023-12-29T08:03:44;100666.19;;;8.81;85.97
83631;BME280;73593;52.134;5.426;2023-12-29T08:06:12;100667.97;;;8.80;86.16
83631;BME280;73593;52.134;5.426;2023-12-29T08:08:43;100664.38;;;8.81;86.04
83631;BME280;73593;52.134;5.426;2023-12-29T08:11:18;100662.59;;;8.82;86.25
83631;BME280;73593;52.134;5.426;2023-12-29T08:13:48;100657.31;;;8.82;86.23
83631;BME280;73593;52.134;5.426;2023-12-29T08:16:16;100658.97;;;8.83;86.38
83631;BME280;73593;52.134;5.426;2023-12-29T08:18:49;100654.44;;;8.85;86.36
83631;BME280;73593;52.134;5.426;2023-12-29T08:21:17;100658.63;;;8.87;86.12
83631;BME280;73593;52.134;5.426;2023-12-29T08:23:47;100660.22;;;8.90;86.02
83631;BME280;73593;52.134;5.426;2023-12-29T08:26:14;100668.84;;;8.92;86.17
83631;BME280;73593;52.134;5.426;2023-12-29T08:28:46;100671.63;;;8.91;86.85
83631;BME280;73593;52.134;5.426;2023-12-29T08:31:14;100667.19;;;8.91;86.53
83631;BME280;73593;52.134;5.426;2023-12-29T08:33:43;100672.56;;;8.89;86.22
83631;BME280;73593;52.134;5.426;2023-12-29T08:36:12;100663.69;;;8.91;86.42
83631;BME280;73593;52.134;5.426;2023-12-29T08:38:42;100666.44;;;8.89;86.71
83631;BME280;73593;52.134;5.426;2023-12-29T08:41:13;100671.00;;;8.87;86.43
83631;BME280;73593;52.134;5.426;2023-12-29T08:43:40;100676.91;;;8.91;86.16
83631;BME280;73593;52.134;5.426;2023-12-29T08:46:07;100667.88;;;8.93;86.20
83631;BME280;73593;52.134;5.426;2023-12-29T08:48:35;100660.59;;;8.97;86.28
83631;BME280;73593;52.134;5.426;2023-12-29T08:51:02;100663.09;;;8.98;85.84
83631;BME280;73593;52.134;5.426;2023-12-29T08:53:30;100663.09;;;8.98;85.64
83631;BME280;73593;52.134;5.426;2023-12-29T08:56:00;100652.53;;;8.98;86.08
83631;BME280;73593;52.134;5.426;2023-12-29T08:58:29;100663.56;;;8.92;86.92
83631;BME280;73593;52.134;5.426;2023-12-29T09:00:58;100671.84;;;8.87;87.16
83631;BME280;73593;52.134;5.426;2023-12-29T09:03:25;100675.78;;;8.82;87.61
83631;BME280;73593;52.134;5.426;2023-12-29T09:05:57;100666.31;;;8.79;87.97
83631;BME280;73593;52.134;5.426;2023-12-29T09:08:30;100664.72;;;8.77;88.36
83631;BME280;73593;52.134;5.426;2023-12-29T09:10:59;100658.72;;;8.75;88.45
83631;BME280;73593;52.134;5.426;2023-12-29T09:13:26;100671.81;;;8.76;88.57
83631;BME280;73593;52.134;5.426;2023-12-29T09:15:54;100665.56;;;8.77;88.73
83631;BME280;73593;52.134;5.426;2023-12-29T09:18:24;100664.50;;;8.80;88.66
83631;BME280;73593;52.134;5.426;2023-12-29T09:20:51;100659.09;;;8.81;88.55
83631;BME280;73593;52.134;5.426;2023-12-29T09:23:18;100665.09;;;8.83;88.49
83631;BME280;73593;52.134;5.426;2023-12-29T09:25:44;100678.91;;;8.87;88.23
83631;BME280;73593;52.134;5.426;2023-12-29T09:28:11;100674.13;;;8.92;87.91
83631;BME280;73593;52.134;5.426;2023-12-29T09:30:38;100677.50;;;8.94;87.90
83631;BME280;73593;52.134;5.426;2023-12-29T09:33:08;100680.88;;;8.96;87.81
83631;BME280;73593;52.134;5.426;2023-12-29T09:35:39;100692.97;;;8.99;87.87
83631;BME280;73593;52.134;5.426;2023-12-29T09:38:08;100698.88;;;9.02;87.83
83631;BME280;73593;52.134;5.426;2023-12-29T09:40:36;100686.88;;;9.09;87.87
83631;BME280;73593;52.134;5.426;2023-12-29T09:43:05;100698.66;;;9.17;87.67
83631;BME280;73593;52.134;5.426;2023-12-29T09:45:33;100700.94;;;9.21;87.40
83631;BME280;73593;52.134;5.426;2023-12-29T09:48:07;100703.34;;;9.24;87.21
83631;BME280;73593;52.134;5.426;2023-12-29T09:50:38;100701.41;;;9.26;87.03
83631;BME280;73593;52.134;5.426;2023-12-29T09:53:11;100687.16;;;9.29;86.89
83631;BME280;73593;52.134;5.426;2023-12-29T09:55:40;100690.28;;;9.34;86.73
83631;BME280;73593;52.134;5.426;2023-12-29T09:58:09;100688.34;;;9.36;86.62
83631;BME280;73593;52.134;5.426;2023-12-29T10:00:39;100696.88;;;9.39;86.08
83631;BME280;73593;52.134;5.426;2023-12-29T10:03:09;100699.97;;;9.45;85.95
83631;BME280;73593;52.134;5.426;2023-12-29T10:05:36;100699.03;;;9.46;86.18
83631;BME280;73593;52.134;5.426;2023-12-29T10:08:07;100705.25;;;9.45;85.68
83631;BME280;73593;52.134;5.426;2023-12-29T10:10:38;100693.63;;;9.47;85.82
83631;BME280;73593;52.134;5.426;2023-12-29T10:13:06;100682.94;;;9.49;85.36
83631;BME280;73593;52.134;5.426;2023-12-29T10:15:37;100692.31;;;9.53;84.95
83631;BME280;73593;52.134;5.426;2023-12-29T10:23:24;100690.13;;;9.69;84.81
83631;BME280;73593;52.134;5.426;2023-12-29T10:25:57;100701.19;;;9.74;84.77
83631;BME280;73593;52.134;5.426;2023-12-29T10:28:26;100694.09;;;9.75;84.69
83631;BME280;73593;52.134;5.426;2023-12-29T10:30:55;100699.50;;;9.73;84.59
83631;BME280;73593;52.134;5.426;2023-12-29T10:33:24;100708.13;;;9.75;84.44
83631;BME280;73593;52.134;5.426;2023-12-29T10:36:00;100690.13;;;9.80;84.07
83631;BME280;73593;52.134;5.426;2023-12-29T10:38:31;100682.53;;;9.87;84.11
83631;BME280;73593;52.134;5.426;2023-12-29T10:41:17;100700.06;;;9.88;83.77
83631;BME280;73593;52.134;5.426;2023-12-29T10:43:46;100695.66;;;9.88;83.57
83631;BME280;73593;52.134;5.426;2023-12-29T10:46:19;100691.19;;;9.89;83.32
83631;BME280;73593;52.134;5.426;2023-12-29T10:48:50;100698.88;;;9.92;83.44
83631;BME280;73593;52.134;5.426;2023-12-29T10:51:28;100709.31;;;9.93;82.99
83631;BME280;73593;52.134;5.426;2023-12-29T10:53:56;100705.75;;;9.94;83.01
83631;BME280;73593;52.134;5.426;2023-12-29T10:56:30;100704.78;;;9.95;82.59
83631;BME280;73593;52.134;5.426;2023-12-29T10:59:02;100711.88;;;9.95;82.57
83631;BME280;73593;52.134;5.426;2023-12-29T11:01:36;100722.66;;;9.92;82.25
83631;BME280;73593;52.134;5.426;2023-12-29T11:04:04;100713.28;;;9.88;82.47
83631;BME280;73593;52.134;5.426;2023-12-29T11:06:42;100715.22;;;9.86;82.52
83631;BME280;73593;52.134;5.426;2023-12-29T11:09:11;100710.78;;;9.86;82.61
83631;BME280;73593;52.134;5.426;2023-12-29T11:11:41;100711.63;;;9.87;82.63
83631;BME280;73593;52.134;5.426;2023-12-29T11:14:10;100726.63;;;9.86;82.27
83631;BME280;73593;52.134;5.426;2023-12-29T11:16:39;100730.03;;;9.88;82.67
83631;BME280;73593;52.134;5.426;2023-12-29T11:19:09;100736.03;;;9.90;82.30
83631;BME280;73593;52.134;5.426;2023-12-29T11:21:39;100732.19;;;9.94;81.80
83631;BME280;73593;52.134;5.426;2023-12-29T11:24:06;100737.34;;;9.96;81.95
83631;BME280;73593;52.134;5.426;2023-12-29T11:26:33;100736.09;;;10.00;81.50
83631;BME280;73593;52.134;5.426;2023-12-29T11:29:01;100729.75;;;10.03;81.35
83631;BME280;73593;52.134;5.426;2023-12-29T11:31:27;100736.50;;;10.07;81.52
83631;BME280;73593;52.134;5.426;2023-12-29T11:34:00;100739.84;;;10.09;81.30
83631;BME280;73593;52.134;5.426;2023-12-29T11:36:38;100731.78;;;10.10;81.36
83631;BME280;73593;52.134;5.426;2023-12-29T11:44:29;100730.72;;;10.13;81.13
83631;BME280;73593;52.134;5.426;2023-12-29T11:46:59;100741.03;;;10.16;80.92
83631;BME280;73593;52.134;5.426;2023-12-29T11:49:57;100735.38;;;10.20;80.83
83631;BME280;73593;52.134;5.426;2023-12-29T11:52:35;100740.78;;;10.19;80.79
83631;BME280;73593;52.134;5.426;2023-12-29T11:55:12;100726.69;;;10.18;80.33
83631;BME280;73593;52.134;5.426;2023-12-29T11:57:40;100727.56;;;10.19;80.39
83631;BME280;73593;52.134;5.426;2023-12-29T12:00:08;100725.50;;;10.22;80.42
83631;BME280;73593;52.134;5.426;2023-12-29T12:02:40;100722.84;;;10.22;79.82
83631;BME280;73593;52.134;5.426;2023-12-29T12:05:11;100723.72;;;10.23;79.76
83631;BME280;73593;52.134;5.426;2023-12-29T12:07:55;100730.91;;;10.21;79.34
83631;BME280;73593;52.134;5.426;2023-12-29T12:12:52;100733.69;;;10.19;78.88
83631;BME280;73593;52.134;5.426;2023-12-29T12:18:05;100739.59;;;10.23;78.81
83631;BME280;73593;52.134;5.426;2023-12-29T12:20:36;100720.22;;;10.22;78.58
83631;BME280;73593;52.134;5.426;2023-12-29T12:23:17;100731.66;;;10.23;78.42
83631;BME280;73593;52.134;5.426;2023-12-29T12:25:49;100710.59;;;10.21;78.54
83631;BME280;73593;52.134;5.426;2023-12-29T12:28:18;100716.72;;;10.22;78.23
83631;BME280;73593;52.134;5.426;2023-12-29T12:30:45;100717.47;;;10.24;78.37
83631;BME280;73593;52.134;5.426;2023-12-29T12:33:16;100717.22;;;10.27;78.33
83631;BME280;73593;52.134;5.426;2023-12-29T12:35:43;100707.94;;;10.33;78.56
83631;BME280;73593;52.134;5.426;2023-12-29T12:38:16;100708.91;;;10.32;78.59
83631;BME280;73593;52.134;5.426;2023-12-29T12:40:50;100708.91;;;10.32;78.39
83631;BME280;73593;52.134;5.426;2023-12-29T12:43:17;100709.63;;;10.34;78.39
83631;BME280;73593;52.134;5.426;2023-12-29T12:45:53;100710.59;;;10.33;78.33
83631;BME280;73593;52.134;5.426;2023-12-29T12:48:23;100708.78;;;10.33;78.53
83631;BME280;73593;52.134;5.426;2023-12-29T12:50:57;100712.41;;;10.32;78.83
83631;BME280;73593;52.134;5.426;2023-12-29T12:53:27;100697.59;;;10.30;78.73
83631;BME280;73593;52.134;5.426;2023-12-29T12:55:56;100702.91;;;10.30;78.89
83631;BME280;73593;52.134;5.426;2023-12-29T12:58:25;100711.56;;;10.32;78.82
83631;BME280;73593;52.134;5.426;2023-12-29T13:00:57;100692.06;;;10.33;78.71
83631;BME280;73593;52.134;5.426;2023-12-29T13:03:24;100696.41;;;10.34;78.93
83631;BME280;73593;52.134;5.426;2023-12-29T13:05:53;100700.00;;;10.33;78.89
83631;BME280;73593;52.134;5.426;2023-12-29T13:08:20;100698.34;;;10.32;78.99
83631;BME280;73593;52.134;5.426;2023-12-29T13:11:00;100711.56;;;10.32;79.02
83631;BME280;73593;52.134;5.426;2023-12-29T13:13:38;100699.28;;;10.31;79.05
83631;BME280;73593;52.134;5.426;2023-12-29T13:16:09;100702.06;;;10.29;78.91
83631;BME280;73593;52.134;5.426;2023-12-29T13:18:41;100695.22;;;10.27;78.97
83631;BME280;73593;52.134;5.426;2023-12-29T13:21:17;100693.75;;;10.22;79.29
83631;BME280;73593;52.134;5.426;2023-12-29T13:23:47;100708.19;;;10.18;79.42
83631;BME280;73593;52.134;5.426;2023-12-29T13:26:13;100698.69;;;10.16;79.72